BER8SH EDDB-EDDL
Flight info
| Callsign | BER8SH |
|---|---|
| Flight time | 0h 50m |
| Altitude | 28000 |
| Route | SUKIP3Q/06R SUKIP Y206 BUREL P203 HLZ L980 SAS DCT PIROT T851 HALME HALME1A |
| Aircraft | A320/M-SDE3FGHIRWY/LB1 |
Departure
| Time | 2026-05-06 08:12 |
|---|---|
| Airport | Berlin Brandenburg Airport (EDDB) |
Arrival
| Time | 2026-05-06 09:02 |
|---|---|
| Airport | Düsseldorf Airport (EDDL) |
| Time | Latitude | Longitude | Altitude | Speed | Heading |
|---|---|---|---|---|---|
| 2026-05-06 07:41 | 52.36255 | 13.50690 | 156 ft | 0 kts | 64° |
| 2026-05-06 07:59 | 52.36250 | 13.50670 | 155 ft | 4 kts | 64° |
| 2026-05-06 08:00 | 52.36238 | 13.50630 | 155 ft | 4 kts | 68° |
| 2026-05-06 08:00 | 52.36230 | 13.50588 | 155 ft | 4 kts | 84° |
| 2026-05-06 08:00 | 52.36232 | 13.50547 | 154 ft | 4 kts | 124° |
| 2026-05-06 08:00 | 52.36241 | 13.50531 | 154 ft | 0 kts | 159° |
| 2026-05-06 08:03 | 52.36236 | 13.50534 | 154 ft | 2 kts | 158° |
| 2026-05-06 08:03 | 52.36214 | 13.50549 | 154 ft | 5 kts | 158° |
| 2026-05-06 08:03 | 52.36176 | 13.50575 | 154 ft | 7 kts | 157° |
| 2026-05-06 08:03 | 52.36124 | 13.50610 | 154 ft | 9 kts | 159° |
| 2026-05-06 08:04 | 52.36055 | 13.50651 | 154 ft | 12 kts | 159° |
| 2026-05-06 08:04 | 52.35971 | 13.50703 | 155 ft | 14 kts | 159° |
| 2026-05-06 08:04 | 52.35872 | 13.50762 | 155 ft | 16 kts | 159° |
| 2026-05-06 08:04 | 52.35765 | 13.50831 | 155 ft | 16 kts | 159° |
| 2026-05-06 08:05 | 52.35658 | 13.50792 | 158 ft | 17 kts | 217° |
| 2026-05-06 08:05 | 52.35628 | 13.50716 | 160 ft | 1 kts | 307° |
| 2026-05-06 08:05 | 52.35657 | 13.50688 | 159 ft | 13 kts | 324° |
| 2026-05-06 08:05 | 52.35682 | 13.50536 | 157 ft | 11 kts | 257° |
| 2026-05-06 08:06 | 52.35655 | 13.50469 | 156 ft | 10 kts | 229° |
| 2026-05-06 08:06 | 52.35609 | 13.50333 | 156 ft | 15 kts | 248° |
| 2026-05-06 08:06 | 52.35569 | 13.50162 | 157 ft | 18 kts | 248° |
| 2026-05-06 08:06 | 52.35521 | 13.49952 | 156 ft | 21 kts | 249° |
| 2026-05-06 08:07 | 52.35468 | 13.49715 | 155 ft | 23 kts | 250° |
| 2026-05-06 08:07 | 52.35406 | 13.49472 | 160 ft | 21 kts | 248° |
| 2026-05-06 08:07 | 52.35356 | 13.49268 | 162 ft | 20 kts | 248° |
| 2026-05-06 08:07 | 52.35301 | 13.49046 | 161 ft | 23 kts | 250° |
| 2026-05-06 08:08 | 52.35241 | 13.48782 | 159 ft | 26 kts | 251° |
| 2026-05-06 08:08 | 52.35171 | 13.48495 | 158 ft | 27 kts | 247° |
| 2026-05-06 08:08 | 52.35103 | 13.48220 | 158 ft | 25 kts | 246° |
| 2026-05-06 08:08 | 52.35044 | 13.47960 | 158 ft | 24 kts | 250° |
| 2026-05-06 08:09 | 52.34987 | 13.47717 | 159 ft | 22 kts | 248° |
| 2026-05-06 08:09 | 52.34931 | 13.47482 | 156 ft | 22 kts | 248° |
| 2026-05-06 08:09 | 52.34876 | 13.47247 | 155 ft | 22 kts | 251° |
| 2026-05-06 08:09 | 52.34823 | 13.47023 | 158 ft | 20 kts | 249° |
| 2026-05-06 08:10 | 52.34778 | 13.46828 | 161 ft | 17 kts | 248° |
| 2026-05-06 08:10 | 52.34699 | 13.46779 | 163 ft | 11 kts | 158° |
| 2026-05-06 08:10 | 52.34635 | 13.46821 | 162 ft | 10 kts | 158° |
| 2026-05-06 08:10 | 52.34582 | 13.46889 | 162 ft | 11 kts | 119° |
| 2026-05-06 08:11 | 52.34588 | 13.47031 | 161 ft | 20 kts | 69° |
| 2026-05-06 08:11 | 52.34718 | 13.47573 | 158 ft | 87 kts | 68° |
| 2026-05-06 08:11 | 52.35013 | 13.48805 | 161 ft | 143 kts | 69° |
| 2026-05-06 08:11 | 52.35422 | 13.50453 | 489 ft | 162 kts | 65° |
| 2026-05-06 08:12 | 52.35616 | 13.52257 | 1213 ft | 168 kts | 102° |
| 2026-05-06 08:12 | 52.34952 | 13.53842 | 1999 ft | 175 kts | 132° |
| 2026-05-06 08:12 | 52.33891 | 13.55027 | 2454 ft | 200 kts | 163° |
| 2026-05-06 08:12 | 52.32438 | 13.54796 | 2840 ft | 228 kts | 206° |
| 2026-05-06 08:13 | 52.31296 | 13.52854 | 3254 ft | 254 kts | 246° |
| 2026-05-06 08:13 | 52.30923 | 13.49995 | 4113 ft | 261 kts | 267° |
| 2026-05-06 08:13 | 52.30932 | 13.47068 | 5248 ft | 262 kts | 272° |
| 2026-05-06 08:13 | 52.31048 | 13.44075 | 6203 ft | 266 kts | 275° |
| 2026-05-06 08:14 | 52.31167 | 13.41037 | 7147 ft | 269 kts | 273° |
| 2026-05-06 08:14 | 52.31253 | 13.37958 | 8059 ft | 273 kts | 271° |
| 2026-05-06 08:14 | 52.31302 | 13.34838 | 8940 ft | 277 kts | 270° |
| 2026-05-06 08:14 | 52.31322 | 13.31665 | 9782 ft | 281 kts | 269° |
| 2026-05-06 08:15 | 52.31324 | 13.28379 | 10189 ft | 301 kts | 269° |
| 2026-05-06 08:15 | 52.31314 | 13.24822 | 10421 ft | 325 kts | 269° |
| 2026-05-06 08:15 | 52.31296 | 13.21046 | 10864 ft | 338 kts | 269° |
| 2026-05-06 08:15 | 52.31277 | 13.17174 | 11597 ft | 342 kts | 269° |
| 2026-05-06 08:16 | 52.31254 | 13.13275 | 12400 ft | 344 kts | 269° |
| 2026-05-06 08:16 | 52.31231 | 13.09355 | 13206 ft | 346 kts | 269° |
| 2026-05-06 08:16 | 52.31209 | 13.05415 | 13949 ft | 348 kts | 269° |
| 2026-05-06 08:16 | 52.31186 | 13.01442 | 14615 ft | 351 kts | 268° |
| 2026-05-06 08:17 | 52.31164 | 12.97442 | 15278 ft | 354 kts | 268° |
| 2026-05-06 08:17 | 52.31139 | 12.93397 | 15680 ft | 357 kts | 268° |
| 2026-05-06 08:17 | 52.31112 | 12.89320 | 16285 ft | 360 kts | 268° |
| 2026-05-06 08:17 | 52.31080 | 12.85223 | 16966 ft | 362 kts | 268° |
| 2026-05-06 08:18 | 52.31044 | 12.81114 | 17626 ft | 365 kts | 268° |
| 2026-05-06 08:18 | 52.31007 | 12.76957 | 18250 ft | 367 kts | 268° |
| 2026-05-06 08:18 | 52.30970 | 12.72764 | 18812 ft | 371 kts | 268° |
| 2026-05-06 08:18 | 52.30933 | 12.68530 | 19346 ft | 374 kts | 268° |
| 2026-05-06 08:19 | 52.30896 | 12.64254 | 19878 ft | 379 kts | 268° |
| 2026-05-06 08:19 | 52.30856 | 12.59932 | 20409 ft | 383 kts | 268° |
| 2026-05-06 08:19 | 52.30813 | 12.55563 | 20928 ft | 387 kts | 268° |
| 2026-05-06 08:19 | 52.30765 | 12.51151 | 21433 ft | 390 kts | 268° |
| 2026-05-06 08:20 | 52.30715 | 12.46694 | 21932 ft | 394 kts | 268° |
| 2026-05-06 08:20 | 52.30664 | 12.42250 | 22472 ft | 398 kts | 268° |
| 2026-05-06 08:20 | 52.30613 | 12.37707 | 22989 ft | 402 kts | 268° |
| 2026-05-06 08:20 | 52.30560 | 12.33113 | 23458 ft | 406 kts | 268° |
| 2026-05-06 08:21 | 52.30505 | 12.28483 | 23832 ft | 409 kts | 268° |
| 2026-05-06 08:21 | 52.30449 | 12.23815 | 24207 ft | 412 kts | 268° |
| 2026-05-06 08:21 | 52.30388 | 12.19115 | 24564 ft | 415 kts | 268° |
| 2026-05-06 08:21 | 52.30326 | 12.14378 | 24914 ft | 418 kts | 268° |
| 2026-05-06 08:22 | 52.30258 | 12.09615 | 25260 ft | 421 kts | 268° |
| 2026-05-06 08:22 | 52.30187 | 12.04811 | 25612 ft | 424 kts | 268° |
| 2026-05-06 08:22 | 52.30114 | 11.99975 | 25954 ft | 427 kts | 268° |
| 2026-05-06 08:22 | 52.30041 | 11.95109 | 26283 ft | 430 kts | 268° |
| 2026-05-06 08:23 | 52.29965 | 11.90210 | 26595 ft | 433 kts | 268° |
| 2026-05-06 08:23 | 52.29885 | 11.85284 | 26904 ft | 436 kts | 267° |
| 2026-05-06 08:23 | 52.29804 | 11.80315 | 27203 ft | 439 kts | 267° |
| 2026-05-06 08:23 | 52.29720 | 11.75306 | 27512 ft | 442 kts | 267° |
| 2026-05-06 08:24 | 52.29635 | 11.70273 | 27746 ft | 445 kts | 267° |
| 2026-05-06 08:24 | 52.29550 | 11.65215 | 27795 ft | 444 kts | 267° |
| 2026-05-06 08:24 | 52.29463 | 11.60178 | 27796 ft | 444 kts | 267° |
| 2026-05-06 08:24 | 52.29368 | 11.55130 | 27794 ft | 444 kts | 267° |
| 2026-05-06 08:25 | 52.29270 | 11.50091 | 27796 ft | 444 kts | 267° |
| 2026-05-06 08:25 | 52.29174 | 11.45050 | 27801 ft | 444 kts | 267° |
| 2026-05-06 08:25 | 52.29077 | 11.40075 | 27799 ft | 444 kts | 267° |
| 2026-05-06 08:25 | 52.28974 | 11.35034 | 27797 ft | 444 kts | 267° |
| 2026-05-06 08:26 | 52.28868 | 11.29992 | 27794 ft | 444 kts | 266° |
| 2026-05-06 08:26 | 52.28760 | 11.24940 | 27793 ft | 444 kts | 266° |
| 2026-05-06 08:26 | 52.28650 | 11.19903 | 27790 ft | 444 kts | 266° |
| 2026-05-06 08:26 | 52.28538 | 11.14862 | 27797 ft | 444 kts | 266° |
| 2026-05-06 08:27 | 52.28425 | 11.09819 | 27794 ft | 444 kts | 266° |
| 2026-05-06 08:27 | 52.28314 | 11.04787 | 27791 ft | 444 kts | 266° |
| 2026-05-06 08:27 | 52.28201 | 10.99748 | 27789 ft | 444 kts | 266° |
| 2026-05-06 08:27 | 52.28082 | 10.94710 | 27790 ft | 444 kts | 266° |
| 2026-05-06 08:28 | 52.27962 | 10.89672 | 27787 ft | 444 kts | 266° |
| 2026-05-06 08:28 | 52.27844 | 10.84638 | 27790 ft | 444 kts | 266° |
| 2026-05-06 08:28 | 52.27723 | 10.79594 | 27793 ft | 444 kts | 266° |
| 2026-05-06 08:28 | 52.27596 | 10.74553 | 27795 ft | 445 kts | 266° |
| 2026-05-06 08:29 | 52.27464 | 10.69504 | 27796 ft | 445 kts | 266° |
| 2026-05-06 08:29 | 52.27331 | 10.64463 | 27796 ft | 445 kts | 266° |
| 2026-05-06 08:29 | 52.27198 | 10.59417 | 27793 ft | 445 kts | 266° |
| 2026-05-06 08:29 | 52.27062 | 10.54370 | 27797 ft | 445 kts | 265° |
| 2026-05-06 08:30 | 52.26924 | 10.49321 | 27794 ft | 445 kts | 265° |
| 2026-05-06 08:30 | 52.26784 | 10.44272 | 27797 ft | 445 kts | 265° |
| 2026-05-06 08:30 | 52.26642 | 10.39220 | 27795 ft | 445 kts | 265° |
| 2026-05-06 08:30 | 52.26500 | 10.34197 | 27789 ft | 445 kts | 265° |
| 2026-05-06 08:31 | 52.26355 | 10.29167 | 27788 ft | 445 kts | 265° |
| 2026-05-06 08:31 | 52.26204 | 10.24128 | 27789 ft | 446 kts | 265° |
| 2026-05-06 08:31 | 52.26051 | 10.19040 | 27786 ft | 446 kts | 265° |
| 2026-05-06 08:31 | 52.25897 | 10.14005 | 27786 ft | 446 kts | 265° |
| 2026-05-06 08:32 | 52.25742 | 10.08944 | 27787 ft | 447 kts | 265° |
| 2026-05-06 08:32 | 52.25583 | 10.03919 | 27786 ft | 447 kts | 265° |
| 2026-05-06 08:32 | 52.25421 | 9.98839 | 27789 ft | 447 kts | 265° |
| 2026-05-06 08:32 | 52.25240 | 9.93809 | 27784 ft | 446 kts | 262° |
| 2026-05-06 08:33 | 52.24715 | 9.88834 | 27782 ft | 444 kts | 253° |
| 2026-05-06 08:33 | 52.23734 | 9.84063 | 27784 ft | 441 kts | 244° |
| 2026-05-06 08:33 | 52.22412 | 9.79590 | 27782 ft | 440 kts | 241° |
| 2026-05-06 08:33 | 52.21053 | 9.75127 | 27785 ft | 440 kts | 241° |
| 2026-05-06 08:34 | 52.19700 | 9.70659 | 27782 ft | 441 kts | 242° |
| 2026-05-06 08:34 | 52.16972 | 9.61654 | 27782 ft | 441 kts | 241° |
| 2026-05-06 08:34 | 52.15615 | 9.57183 | 27781 ft | 442 kts | 241° |
| 2026-05-06 08:35 | 52.14251 | 9.52695 | 27782 ft | 442 kts | 241° |
| 2026-05-06 08:35 | 52.12900 | 9.48260 | 27785 ft | 442 kts | 241° |
| 2026-05-06 08:35 | 52.11522 | 9.43746 | 27783 ft | 442 kts | 241° |
| 2026-05-06 08:35 | 52.10162 | 9.39304 | 27785 ft | 442 kts | 241° |
| 2026-05-06 08:36 | 52.08773 | 9.34798 | 27783 ft | 442 kts | 241° |
| 2026-05-06 08:36 | 52.07393 | 9.30338 | 27785 ft | 442 kts | 241° |
| 2026-05-06 08:36 | 52.06043 | 9.25837 | 27782 ft | 443 kts | 245° |
| 2026-05-06 08:36 | 52.05051 | 9.21089 | 27784 ft | 445 kts | 254° |
| 2026-05-06 08:37 | 52.04422 | 9.16157 | 27784 ft | 446 kts | 257° |
| 2026-05-06 08:37 | 52.03820 | 9.11214 | 27784 ft | 447 kts | 257° |
| 2026-05-06 08:37 | 52.03210 | 9.06267 | 27785 ft | 447 kts | 257° |
| 2026-05-06 08:37 | 52.02606 | 9.01381 | 27784 ft | 447 kts | 257° |
| 2026-05-06 08:38 | 52.01995 | 8.96432 | 27787 ft | 447 kts | 257° |
| 2026-05-06 08:38 | 52.01383 | 8.91496 | 27785 ft | 446 kts | 257° |
| 2026-05-06 08:38 | 52.00765 | 8.86560 | 27790 ft | 446 kts | 257° |
| 2026-05-06 08:38 | 52.00148 | 8.81628 | 27792 ft | 447 kts | 257° |
| 2026-05-06 08:39 | 51.99529 | 8.76689 | 27789 ft | 446 kts | 257° |
| 2026-05-06 08:39 | 51.98908 | 8.71755 | 27792 ft | 446 kts | 257° |
| 2026-05-06 08:39 | 51.98284 | 8.66831 | 27787 ft | 445 kts | 257° |
| 2026-05-06 08:39 | 51.97657 | 8.61912 | 27791 ft | 446 kts | 257° |
| 2026-05-06 08:40 | 51.97233 | 8.58595 | 27791 ft | 445 kts | 257° |
| 2026-05-06 08:40 | 51.96600 | 8.53671 | 27797 ft | 445 kts | 257° |
| 2026-05-06 08:40 | 51.95970 | 8.48755 | 27797 ft | 445 kts | 257° |
| 2026-05-06 08:40 | 51.95347 | 8.43909 | 27795 ft | 445 kts | 257° |
| 2026-05-06 08:41 | 51.94715 | 8.38995 | 27795 ft | 445 kts | 257° |
| 2026-05-06 08:41 | 51.94079 | 8.34087 | 27794 ft | 445 kts | 257° |
| 2026-05-06 08:41 | 51.93442 | 8.29184 | 27793 ft | 445 kts | 257° |
| 2026-05-06 08:41 | 51.92799 | 8.24262 | 27798 ft | 445 kts | 257° |
| 2026-05-06 08:42 | 51.92156 | 8.19361 | 27801 ft | 445 kts | 256° |
| 2026-05-06 08:42 | 51.91514 | 8.14455 | 27799 ft | 445 kts | 256° |
| 2026-05-06 08:42 | 51.90871 | 8.09559 | 27801 ft | 445 kts | 256° |
| 2026-05-06 08:42 | 51.90223 | 8.04660 | 27802 ft | 445 kts | 257° |
| 2026-05-06 08:43 | 51.89575 | 7.99763 | 27801 ft | 445 kts | 256° |
| 2026-05-06 08:43 | 51.88924 | 7.94869 | 27800 ft | 445 kts | 256° |
| 2026-05-06 08:43 | 51.88271 | 7.89980 | 27742 ft | 446 kts | 256° |
| 2026-05-06 08:43 | 51.87611 | 7.85069 | 27475 ft | 446 kts | 256° |
| 2026-05-06 08:44 | 51.86948 | 7.80161 | 27207 ft | 446 kts | 257° |
| 2026-05-06 08:44 | 51.86293 | 7.75317 | 26950 ft | 447 kts | 257° |
| 2026-05-06 08:44 | 51.85457 | 7.70417 | 26685 ft | 446 kts | 249° |
| 2026-05-06 08:44 | 51.84235 | 7.65897 | 26425 ft | 445 kts | 243° |
| 2026-05-06 08:45 | 51.82897 | 7.61397 | 26172 ft | 443 kts | 244° |
| 2026-05-06 08:45 | 51.81561 | 7.56922 | 25912 ft | 441 kts | 243° |
| 2026-05-06 08:45 | 51.80232 | 7.52464 | 25656 ft | 439 kts | 244° |
| 2026-05-06 08:45 | 51.78914 | 7.48031 | 25281 ft | 435 kts | 244° |
| 2026-05-06 08:46 | 51.77610 | 7.43637 | 24587 ft | 432 kts | 244° |
| 2026-05-06 08:46 | 51.76317 | 7.39287 | 23920 ft | 428 kts | 244° |
| 2026-05-06 08:46 | 51.75029 | 7.34967 | 23241 ft | 425 kts | 244° |
| 2026-05-06 08:46 | 51.73748 | 7.30690 | 22538 ft | 421 kts | 244° |
| 2026-05-06 08:47 | 51.72420 | 7.26504 | 21931 ft | 417 kts | 238° |
| 2026-05-06 08:47 | 51.70694 | 7.22790 | 21335 ft | 413 kts | 227° |
| 2026-05-06 08:47 | 51.68578 | 7.19732 | 20762 ft | 407 kts | 216° |
| 2026-05-06 08:47 | 51.66159 | 7.17416 | 20199 ft | 402 kts | 205° |
| 2026-05-06 08:48 | 51.63571 | 7.15773 | 19634 ft | 397 kts | 201° |
| 2026-05-06 08:48 | 51.60996 | 7.14223 | 19120 ft | 393 kts | 201° |
| 2026-05-06 08:48 | 51.58449 | 7.12668 | 18596 ft | 389 kts | 203° |
| 2026-05-06 08:48 | 51.56078 | 7.10627 | 18071 ft | 386 kts | 214° |
| 2026-05-06 08:49 | 51.54020 | 7.07902 | 17518 ft | 381 kts | 225° |
| 2026-05-06 08:49 | 51.52332 | 7.04645 | 17005 ft | 379 kts | 233° |
| 2026-05-06 08:49 | 51.50748 | 7.01255 | 16473 ft | 380 kts | 233° |
| 2026-05-06 08:49 | 51.49154 | 6.97863 | 15922 ft | 382 kts | 233° |
| 2026-05-06 08:50 | 51.47552 | 6.94460 | 15371 ft | 382 kts | 232° |
| 2026-05-06 08:50 | 51.45961 | 6.91094 | 14802 ft | 372 kts | 232° |
| 2026-05-06 08:50 | 51.44431 | 6.87863 | 14267 ft | 358 kts | 232° |
| 2026-05-06 08:50 | 51.42940 | 6.84718 | 13726 ft | 350 kts | 232° |
| 2026-05-06 08:51 | 51.41475 | 6.81629 | 13146 ft | 348 kts | 232° |
| 2026-05-06 08:51 | 51.40014 | 6.78553 | 12601 ft | 345 kts | 232° |
| 2026-05-06 08:51 | 51.38567 | 6.75508 | 12043 ft | 343 kts | 232° |
| 2026-05-06 08:51 | 51.37124 | 6.72478 | 11481 ft | 340 kts | 232° |
| 2026-05-06 08:52 | 51.35714 | 6.69517 | 10925 ft | 338 kts | 232° |
| 2026-05-06 08:52 | 51.34293 | 6.66537 | 10520 ft | 333 kts | 232° |
| 2026-05-06 08:52 | 51.32914 | 6.63651 | 10400 ft | 320 kts | 232° |
| 2026-05-06 08:52 | 51.31587 | 6.60878 | 10284 ft | 310 kts | 232° |
| 2026-05-06 08:53 | 51.30293 | 6.58173 | 10143 ft | 301 kts | 232° |
| 2026-05-06 08:53 | 51.29046 | 6.55569 | 10019 ft | 289 kts | 232° |
| 2026-05-06 08:53 | 51.27837 | 6.53050 | 9828 ft | 280 kts | 232° |
| 2026-05-06 08:53 | 51.26677 | 6.50633 | 9719 ft | 269 kts | 232° |
| 2026-05-06 08:54 | 51.25564 | 6.48317 | 9580 ft | 258 kts | 232° |
| 2026-05-06 08:54 | 51.24493 | 6.46090 | 9426 ft | 248 kts | 232° |
| 2026-05-06 08:54 | 51.23452 | 6.43931 | 9143 ft | 244 kts | 232° |
| 2026-05-06 08:54 | 51.22428 | 6.41807 | 8770 ft | 243 kts | 232° |
| 2026-05-06 08:55 | 51.21408 | 6.39692 | 8399 ft | 242 kts | 232° |
| 2026-05-06 08:55 | 51.20394 | 6.37593 | 8018 ft | 242 kts | 232° |
| 2026-05-06 08:55 | 51.19288 | 6.35574 | 7642 ft | 242 kts | 218° |
| 2026-05-06 08:55 | 51.17794 | 6.34401 | 7291 ft | 242 kts | 192° |
| 2026-05-06 08:56 | 51.16127 | 6.34405 | 6956 ft | 242 kts | 166° |
| 2026-05-06 08:56 | 51.14630 | 6.35573 | 6632 ft | 241 kts | 142° |
| 2026-05-06 08:56 | 51.13341 | 6.37283 | 6352 ft | 241 kts | 130° |
| 2026-05-06 08:56 | 51.12547 | 6.39599 | 6009 ft | 243 kts | 103° |
| 2026-05-06 08:57 | 51.12537 | 6.42339 | 5411 ft | 253 kts | 72° |
| 2026-05-06 08:57 | 51.13337 | 6.44737 | 5051 ft | 242 kts | 52° |
| 2026-05-06 08:57 | 51.14352 | 6.46854 | 4479 ft | 240 kts | 51° |
| 2026-05-06 08:57 | 51.15364 | 6.48945 | 3932 ft | 236 kts | 51° |
| 2026-05-06 08:58 | 51.16339 | 6.50958 | 3686 ft | 222 kts | 51° |
| 2026-05-06 08:58 | 51.17256 | 6.52856 | 3574 ft | 207 kts | 51° |
| 2026-05-06 08:58 | 51.18105 | 6.54624 | 3399 ft | 198 kts | 51° |
| 2026-05-06 08:58 | 51.18939 | 6.56362 | 3160 ft | 196 kts | 51° |
| 2026-05-06 08:59 | 51.19767 | 6.58085 | 2898 ft | 196 kts | 51° |
| 2026-05-06 08:59 | 51.20586 | 6.59791 | 2630 ft | 191 kts | 51° |
| 2026-05-06 08:59 | 51.21386 | 6.61459 | 2369 ft | 188 kts | 51° |
| 2026-05-06 08:59 | 51.22143 | 6.63038 | 2156 ft | 171 kts | 51° |
| 2026-05-06 09:00 | 51.22825 | 6.64462 | 1921 ft | 155 kts | 50° |
| 2026-05-06 09:00 | 51.23450 | 6.65768 | 1699 ft | 142 kts | 51° |
| 2026-05-06 09:00 | 51.24031 | 6.66980 | 1510 ft | 134 kts | 50° |
| 2026-05-06 09:00 | 51.24600 | 6.68167 | 1328 ft | 136 kts | 51° |
| 2026-05-06 09:01 | 51.25176 | 6.69371 | 1133 ft | 137 kts | 50° |
| 2026-05-06 09:01 | 51.25756 | 6.70583 | 933 ft | 138 kts | 50° |
| 2026-05-06 09:01 | 51.26331 | 6.71787 | 754 ft | 137 kts | 49° |
| 2026-05-06 09:01 | 51.26919 | 6.73017 | 573 ft | 141 kts | 49° |
| 2026-05-06 09:02 | 51.27522 | 6.74278 | 370 ft | 144 kts | 50° |
| 2026-05-06 09:02 | 51.28111 | 6.75514 | 180 ft | 135 kts | 49° |
| 2026-05-06 09:02 | 51.28621 | 6.76583 | 127 ft | 98 kts | 52° |
| 2026-05-06 09:02 | 51.28927 | 6.77227 | 128 ft | 48 kts | 53° |
| 2026-05-06 09:03 | 51.29022 | 6.77510 | 129 ft | 23 kts | 96° |
| 2026-05-06 09:03 | 51.28937 | 6.77634 | 129 ft | 11 kts | 159° |
| 2026-05-06 09:03 | 51.28885 | 6.77608 | 127 ft | 6 kts | 225° |
| 2026-05-06 09:03 | 51.28868 | 6.77576 | 130 ft | 2 kts | 230° |
| 2026-05-06 09:04 | 51.28849 | 6.77537 | 128 ft | 7 kts | 234° |
| 2026-05-06 09:04 | 51.28810 | 6.77449 | 126 ft | 12 kts | 234° |
| 2026-05-06 09:04 | 51.28757 | 6.77338 | 129 ft | 14 kts | 232° |
| 2026-05-06 09:04 | 51.28696 | 6.77205 | 124 ft | 15 kts | 232° |
| 2026-05-06 09:05 | 51.28628 | 6.77065 | 126 ft | 17 kts | 233° |
| 2026-05-06 09:05 | 51.28559 | 6.76917 | 128 ft | 17 kts | 234° |
| 2026-05-06 09:05 | 51.28483 | 6.76762 | 126 ft | 19 kts | 231° |
| 2026-05-06 09:05 | 51.28399 | 6.76589 | 123 ft | 19 kts | 232° |
| 2026-05-06 09:06 | 51.28321 | 6.76423 | 126 ft | 16 kts | 234° |
| 2026-05-06 09:06 | 51.28263 | 6.76289 | 124 ft | 15 kts | 234° |
| 2026-05-06 09:06 | 51.28199 | 6.76164 | 127 ft | 15 kts | 230° |
| 2026-05-06 09:06 | 51.28140 | 6.76043 | 127 ft | 12 kts | 223° |
| 2026-05-06 09:07 | 51.28082 | 6.76049 | 125 ft | 8 kts | 145° |
| 2026-05-06 09:07 | 51.28034 | 6.76049 | 126 ft | 6 kts | 187° |
| 2026-05-06 09:07 | 51.27995 | 6.76045 | 124 ft | 6 kts | 178° |
| 2026-05-06 09:07 | 51.27950 | 6.76056 | 127 ft | 6 kts | 147° |
| 2026-05-06 09:08 | 51.27944 | 6.76098 | 128 ft | 4 kts | 98° |
| 2026-05-06 09:08 | 51.27942 | 6.76157 | 128 ft | 6 kts | 90° |
| 2026-05-06 09:08 | 51.27942 | 6.76182 | 128 ft | 0 kts | 91° |